sensor_id;sensor_type;location;lat;lon;timestamp;temperature;humidity
78884;SHT31;68262;51.968;5.672;2023-04-25T00:00:57;10.3;63.8
78884;SHT31;68262;51.968;5.672;2023-04-25T00:03:26;10.3;63.7
78884;SHT31;68262;51.968;5.672;2023-04-25T00:05:57;10.3;63.7
78884;SHT31;68262;51.968;5.672;2023-04-25T00:08:29;10.2;64.0
78884;SHT31;68262;51.968;5.672;2023-04-25T00:11:00;10.2;63.8
78884;SHT31;68262;51.968;5.672;2023-04-25T00:13:31;10.2;63.6
78884;SHT31;68262;51.968;5.672;2023-04-25T00:16:01;10.2;63.7
78884;SHT31;68262;51.968;5.672;2023-04-25T00:18:31;10.2;63.5
78884;SHT31;68262;51.968;5.672;2023-04-25T00:21:02;10.2;63.7
78884;SHT31;68262;51.968;5.672;2023-04-25T00:23:35;10.2;63.6
78884;SHT31;68262;51.968;5.672;2023-04-25T00:26:06;10.2;63.5
78884;SHT31;68262;51.968;5.672;2023-04-25T00:28:35;10.1;63.4
78884;SHT31;68262;51.968;5.672;2023-04-25T00:31:05;10.1;63.3
78884;SHT31;68262;51.968;5.672;2023-04-25T00:33:34;10.1;63.3
78884;SHT31;68262;51.968;5.672;2023-04-25T00:36:04;10.1;63.2
78884;SHT31;68262;51.968;5.672;2023-04-25T00:38:34;10.1;63.2
78884;SHT31;68262;51.968;5.672;2023-04-25T00:41:07;10.1;63.1
78884;SHT31;68262;51.968;5.672;2023-04-25T00:43:39;10.1;63.2
78884;SHT31;68262;51.968;5.672;2023-04-25T00:46:08;10.1;63.3
78884;SHT31;68262;51.968;5.672;2023-04-25T00:48:38;10.1;63.0
78884;SHT31;68262;51.968;5.672;2023-04-25T00:51:15;10.1;62.7
78884;SHT31;68262;51.968;5.672;2023-04-25T00:53:45;10.0;62.6
78884;SHT31;68262;51.968;5.672;2023-04-25T00:56:16;10.0;62.3
78884;SHT31;68262;51.968;5.672;2023-04-25T00:58:47;10.0;62.6
78884;SHT31;68262;51.968;5.672;2023-04-25T01:01:17;10.0;62.1
78884;SHT31;68262;51.968;5.672;2023-04-25T01:03:47;10.0;62.1
78884;SHT31;68262;51.968;5.672;2023-04-25T01:06:17;9.9;62.2
78884;SHT31;68262;51.968;5.672;2023-04-25T01:08:49;9.9;61.9
78884;SHT31;68262;51.968;5.672;2023-04-25T01:11:20;9.9;62.2
78884;SHT31;68262;51.968;5.672;2023-04-25T01:13:51;9.9;62.0
78884;SHT31;68262;51.968;5.672;2023-04-25T01:16:22;9.9;62.0
78884;SHT31;68262;51.968;5.672;2023-04-25T01:18:54;9.9;61.7
78884;SHT31;68262;51.968;5.672;2023-04-25T01:21:25;9.9;63.0
78884;SHT31;68262;51.968;5.672;2023-04-25T01:23:57;9.9;62.2
78884;SHT31;68262;51.968;5.672;2023-04-25T01:26:27;9.9;62.2
78884;SHT31;68262;51.968;5.672;2023-04-25T01:28:58;10.0;62.2
78884;SHT31;68262;51.968;5.672;2023-04-25T01:31:28;10.0;62.0
78884;SHT31;68262;51.968;5.672;2023-04-25T01:34:00;10.0;62.3
78884;SHT31;68262;51.968;5.672;2023-04-25T01:36:29;10.0;61.8
78884;SHT31;68262;51.968;5.672;2023-04-25T01:38:59;10.0;61.5
78884;SHT31;68262;51.968;5.672;2023-04-25T01:41:30;10.1;61.2
78884;SHT31;68262;51.968;5.672;2023-04-25T01:43:59;10.1;60.5
78884;SHT31;68262;51.968;5.672;2023-04-25T01:46:30;10.1;60.6
78884;SHT31;68262;51.968;5.672;2023-04-25T01:49:00;10.1;60.9
78884;SHT31;68262;51.968;5.672;2023-04-25T01:51:30;10.1;61.0
78884;SHT31;68262;51.968;5.672;2023-04-25T01:54:00;10.1;60.7
78884;SHT31;68262;51.968;5.672;2023-04-25T01:56:32;10.1;60.4
78884;SHT31;68262;51.968;5.672;2023-04-25T01:59:03;10.1;61.1
78884;SHT31;68262;51.968;5.672;2023-04-25T02:01:32;10.1;60.5
78884;SHT31;68262;51.968;5.672;2023-04-25T02:04:02;10.1;60.3
78884;SHT31;68262;51.968;5.672;2023-04-25T02:06:31;10.1;60.1
78884;SHT31;68262;51.968;5.672;2023-04-25T02:09:01;10.1;60.1
78884;SHT31;68262;51.968;5.672;2023-04-25T02:11:31;10.1;59.6
78884;SHT31;68262;51.968;5.672;2023-04-25T02:14:00;10.1;59.7
78884;SHT31;68262;51.968;5.672;2023-04-25T02:16:30;10.0;59.2
78884;SHT31;68262;51.968;5.672;2023-04-25T02:18:59;10.0;59.1
78884;SHT31;68262;51.968;5.672;2023-04-25T02:21:29;9.9;58.8
78884;SHT31;68262;51.968;5.672;2023-04-25T02:23:58;9.9;59.1
78884;SHT31;68262;51.968;5.672;2023-04-25T02:26:28;9.9;59.1
78884;SHT31;68262;51.968;5.672;2023-04-25T02:28:58;9.8;59.3
78884;SHT31;68262;51.968;5.672;2023-04-25T02:31:28;9.8;59.5
78884;SHT31;68262;51.968;5.672;2023-04-25T02:33:58;9.8;59.3
78884;SHT31;68262;51.968;5.672;2023-04-25T02:36:27;9.7;59.6
78884;SHT31;68262;51.968;5.672;2023-04-25T02:38:59;9.7;59.3
78884;SHT31;68262;51.968;5.672;2023-04-25T02:41:30;9.6;59.4
78884;SHT31;68262;51.968;5.672;2023-04-25T02:44:00;9.6;59.4
78884;SHT31;68262;51.968;5.672;2023-04-25T02:46:29;9.6;59.3
78884;SHT31;68262;51.968;5.672;2023-04-25T02:48:59;9.5;59.7
78884;SHT31;68262;51.968;5.672;2023-04-25T02:51:28;9.5;59.3
78884;SHT31;68262;51.968;5.672;2023-04-25T02:53:58;9.5;59.4
78884;SHT31;68262;51.968;5.672;2023-04-25T02:56:27;9.4;59.6
78884;SHT31;68262;51.968;5.672;2023-04-25T02:58:58;9.4;59.6
78884;SHT31;68262;51.968;5.672;2023-04-25T03:01:28;9.4;59.6
78884;SHT31;68262;51.968;5.672;2023-04-25T03:03:57;9.3;59.9
78884;SHT31;68262;51.968;5.672;2023-04-25T03:06:27;9.3;59.7
78884;SHT31;68262;51.968;5.672;2023-04-25T03:08:58;9.3;59.9
78884;SHT31;68262;51.968;5.672;2023-04-25T03:11:27;9.3;59.8
78884;SHT31;68262;51.968;5.672;2023-04-25T03:13:57;9.2;60.1
78884;SHT31;68262;51.968;5.672;2023-04-25T03:16:26;9.2;60.4
78884;SHT31;68262;51.968;5.672;2023-04-25T03:18:56;9.2;60.5
78884;SHT31;68262;51.968;5.672;2023-04-25T03:21:25;9.1;60.7
78884;SHT31;68262;51.968;5.672;2023-04-25T03:23:55;9.1;61.3
78884;SHT31;68262;51.968;5.672;2023-04-25T03:26:25;9.1;61.3
78884;SHT31;68262;51.968;5.672;2023-04-25T03:28:54;9.1;61.5
78884;SHT31;68262;51.968;5.672;2023-04-25T03:31:24;9.1;61.6
78884;SHT31;68262;51.968;5.672;2023-04-25T03:33:55;9.1;61.7
78884;SHT31;68262;51.968;5.672;2023-04-25T03:36:24;9.1;62.0
78884;SHT31;68262;51.968;5.672;2023-04-25T03:38:54;9.1;62.2
78884;SHT31;68262;51.968;5.672;2023-04-25T03:41:23;9.1;62.2
78884;SHT31;68262;51.968;5.672;2023-04-25T03:43:53;9.1;62.0
78884;SHT31;68262;51.968;5.672;2023-04-25T03:46:22;9.1;61.9
78884;SHT31;68262;51.968;5.672;2023-04-25T03:48:51;9.1;61.9
78884;SHT31;68262;51.968;5.672;2023-04-25T03:51:21;9.1;61.6
78884;SHT31;68262;51.968;5.672;2023-04-25T03:53:51;9.1;61.6
78884;SHT31;68262;51.968;5.672;2023-04-25T03:56:21;9.1;61.4
78884;SHT31;68262;51.968;5.672;2023-04-25T03:58:50;9.1;61.5
78884;SHT31;68262;51.968;5.672;2023-04-25T04:01:20;9.1;61.5
78884;SHT31;68262;51.968;5.672;2023-04-25T04:03:49;9.1;62.0
78884;SHT31;68262;51.968;5.672;2023-04-25T04:06:19;9.0;62.0
78884;SHT31;68262;51.968;5.672;2023-04-25T04:08:49;9.0;62.0
78884;SHT31;68262;51.968;5.672;2023-04-25T04:11:20;9.0;61.9
78884;SHT31;68262;51.968;5.672;2023-04-25T04:13:49;8.9;62.2
78884;SHT31;68262;51.968;5.672;2023-04-25T04:16:19;8.9;62.6
78884;SHT31;68262;51.968;5.672;2023-04-25T04:18:48;8.9;62.3
78884;SHT31;68262;51.968;5.672;2023-04-25T04:21:17;8.9;62.5
78884;SHT31;68262;51.968;5.672;2023-04-25T04:23:47;8.9;62.3
78884;SHT31;68262;51.968;5.672;2023-04-25T04:26:16;8.9;62.6
78884;SHT31;68262;51.968;5.672;2023-04-25T04:28:48;9.0;62.1
78884;SHT31;68262;51.968;5.672;2023-04-25T04:31:17;9.0;61.9
78884;SHT31;68262;51.968;5.672;2023-04-25T04:33:47;9.0;61.8
78884;SHT31;68262;51.968;5.672;2023-04-25T04:36:18;9.0;62.2
78884;SHT31;68262;51.968;5.672;2023-04-25T04:38:49;9.1;62.1
78884;SHT31;68262;51.968;5.672;2023-04-25T04:41:19;9.1;61.5
78884;SHT31;68262;51.968;5.672;2023-04-25T04:43:49;9.1;61.8
78884;SHT31;68262;51.968;5.672;2023-04-25T04:46:20;9.1;61.3
78884;SHT31;68262;51.968;5.672;2023-04-25T04:48:51;9.2;61.3
78884;SHT31;68262;51.968;5.672;2023-04-25T04:51:23;9.2;61.0
78884;SHT31;68262;51.968;5.672;2023-04-25T04:53:53;9.2;61.0
78884;SHT31;68262;51.968;5.672;2023-04-25T04:56:25;9.2;60.9
78884;SHT31;68262;51.968;5.672;2023-04-25T04:58:55;9.2;61.5
78884;SHT31;68262;51.968;5.672;2023-04-25T05:01:25;9.2;62.2
78884;SHT31;68262;51.968;5.672;2023-04-25T05:03:56;9.3;61.3
78884;SHT31;68262;51.968;5.672;2023-04-25T05:06:27;9.3;61.2
78884;SHT31;68262;51.968;5.672;2023-04-25T05:08:59;9.3;61.2
78884;SHT31;68262;51.968;5.672;2023-04-25T05:11:28;9.3;61.2
78884;SHT31;68262;51.968;5.672;2023-04-25T05:13:59;9.4;60.9
78884;SHT31;68262;51.968;5.672;2023-04-25T05:16:29;9.4;61.4
78884;SHT31;68262;51.968;5.672;2023-04-25T05:18:58;9.4;61.2
78884;SHT31;68262;51.968;5.672;2023-04-25T05:21:28;9.4;60.7
78884;SHT31;68262;51.968;5.672;2023-04-25T05:23:58;9.4;61.0
78884;SHT31;68262;51.968;5.672;2023-04-25T05:26:28;9.4;61.0
78884;SHT31;68262;51.968;5.672;2023-04-25T05:28:58;9.5;60.8
78884;SHT31;68262;51.968;5.672;2023-04-25T05:31:29;9.5;60.9
78884;SHT31;68262;51.968;5.672;2023-04-25T05:33:59;9.5;60.5
78884;SHT31;68262;51.968;5.672;2023-04-25T05:36:28;9.5;60.3
78884;SHT31;68262;51.968;5.672;2023-04-25T05:38:59;9.5;60.8
78884;SHT31;68262;51.968;5.672;2023-04-25T05:41:30;9.6;60.5
78884;SHT31;68262;51.968;5.672;2023-04-25T05:43:59;9.6;60.5
78884;SHT31;68262;51.968;5.672;2023-04-25T05:46:29;9.6;60.6
78884;SHT31;68262;51.968;5.672;2023-04-25T05:48:59;9.6;60.0
78884;SHT31;68262;51.968;5.672;2023-04-25T05:51:29;9.6;59.7
78884;SHT31;68262;51.968;5.672;2023-04-25T05:53:59;9.7;59.7
78884;SHT31;68262;51.968;5.672;2023-04-25T05:56:28;9.7;60.1
78884;SHT31;68262;51.968;5.672;2023-04-25T05:58:57;9.7;59.4
78884;SHT31;68262;51.968;5.672;2023-04-25T06:01:27;9.7;58.6
78884;SHT31;68262;51.968;5.672;2023-04-25T06:03:56;9.7;59.1
78884;SHT31;68262;51.968;5.672;2023-04-25T06:06:26;9.7;58.9
78884;SHT31;68262;51.968;5.672;2023-04-25T06:08:55;9.7;59.8
78884;SHT31;68262;51.968;5.672;2023-04-25T06:11:25;9.7;59.4
78884;SHT31;68262;51.968;5.672;2023-04-25T06:13:55;9.7;59.7
78884;SHT31;68262;51.968;5.672;2023-04-25T06:16:24;9.7;59.6
78884;SHT31;68262;51.968;5.672;2023-04-25T06:18:54;9.8;59.6
78884;SHT31;68262;51.968;5.672;2023-04-25T06:21:25;9.8;59.7
78884;SHT31;68262;51.968;5.672;2023-04-25T06:23:55;9.8;58.8
78884;SHT31;68262;51.968;5.672;2023-04-25T06:26:24;9.9;59.2
78884;SHT31;68262;51.968;5.672;2023-04-25T06:28:54;9.9;59.4
78884;SHT31;68262;51.968;5.672;2023-04-25T06:31:23;10.0;59.2
78884;SHT31;68262;51.968;5.672;2023-04-25T06:33:53;10.0;58.7
78884;SHT31;68262;51.968;5.672;2023-04-25T06:36:23;10.1;59.3
78884;SHT31;68262;51.968;5.672;2023-04-25T06:38:56;10.1;59.0
78884;SHT31;68262;51.968;5.672;2023-04-25T06:41:26;10.2;58.8
78884;SHT31;68262;51.968;5.672;2023-04-25T06:43:55;10.2;59.0
78884;SHT31;68262;51.968;5.672;2023-04-25T06:46:25;10.3;59.0
78884;SHT31;68262;51.968;5.672;2023-04-25T06:48:54;10.3;58.2
78884;SHT31;68262;51.968;5.672;2023-04-25T06:51:24;10.4;57.9
78884;SHT31;68262;51.968;5.672;2023-04-25T06:53:56;10.4;58.2
78884;SHT31;68262;51.968;5.672;2023-04-25T06:56:26;10.5;57.0
78884;SHT31;68262;51.968;5.672;2023-04-25T06:58:57;10.5;57.3
78884;SHT31;68262;51.968;5.672;2023-04-25T07:01:27;10.5;57.3
78884;SHT31;68262;51.968;5.672;2023-04-25T07:03:57;10.6;56.8
78884;SHT31;68262;51.968;5.672;2023-04-25T07:06:28;10.6;57.5
78884;SHT31;68262;51.968;5.672;2023-04-25T07:08:58;10.7;57.2
78884;SHT31;68262;51.968;5.672;2023-04-25T07:11:27;10.7;57.0
78884;SHT31;68262;51.968;5.672;2023-04-25T07:13:57;10.8;55.7
78884;SHT31;68262;51.968;5.672;2023-04-25T07:16:27;10.8;55.1
78884;SHT31;68262;51.968;5.672;2023-04-25T07:18:58;10.8;55.3
78884;SHT31;68262;51.968;5.672;2023-04-25T07:21:28;10.9;54.6
78884;SHT31;68262;51.968;5.672;2023-04-25T07:23:58;10.9;54.7
78884;SHT31;68262;51.968;5.672;2023-04-25T07:26:28;10.9;55.0
78884;SHT31;68262;51.968;5.672;2023-04-25T07:28:57;10.9;55.6
78884;SHT31;68262;51.968;5.672;2023-04-25T07:31:27;11.0;54.7
78884;SHT31;68262;51.968;5.672;2023-04-25T07:33:57;11.0;53.8
78884;SHT31;68262;51.968;5.672;2023-04-25T07:36:27;11.0;54.4
78884;SHT31;68262;51.968;5.672;2023-04-25T07:38:56;11.1;54.1
78884;SHT31;68262;51.968;5.672;2023-04-25T07:41:25;11.1;54.2
78884;SHT31;68262;51.968;5.672;2023-04-25T07:43:55;11.1;54.3
78884;SHT31;68262;51.968;5.672;2023-04-25T07:46:24;11.2;53.8
78884;SHT31;68262;51.968;5.672;2023-04-25T07:48:54;11.2;53.8
78884;SHT31;68262;51.968;5.672;2023-04-25T07:51:23;11.2;54.1
78884;SHT31;68262;51.968;5.672;2023-04-25T07:53:53;11.3;54.6
78884;SHT31;68262;51.968;5.672;2023-04-25T07:56:22;11.3;53.9
78884;SHT31;68262;51.968;5.672;2023-04-25T07:58:52;11.3;53.7
78884;SHT31;68262;51.968;5.672;2023-04-25T08:01:21;11.4;53.2
78884;SHT31;68262;51.968;5.672;2023-04-25T08:03:51;11.4;52.8
78884;SHT31;68262;51.968;5.672;2023-04-25T08:06:20;11.4;53.0
78884;SHT31;68262;51.968;5.672;2023-04-25T08:08:51;11.4;52.0
78884;SHT31;68262;51.968;5.672;2023-04-25T08:11:21;11.5;53.0
78884;SHT31;68262;51.968;5.672;2023-04-25T08:13:50;11.5;53.2
78884;SHT31;68262;51.968;5.672;2023-04-25T08:16:20;11.6;54.3
78884;SHT31;68262;51.968;5.672;2023-04-25T08:18:50;11.6;51.2
78884;SHT31;68262;51.968;5.672;2023-04-25T08:21:20;11.7;50.6
78884;SHT31;68262;51.968;5.672;2023-04-25T08:23:49;11.8;50.6
78884;SHT31;68262;51.968;5.672;2023-04-25T08:26:18;11.9;48.9
78884;SHT31;68262;51.968;5.672;2023-04-25T08:28:48;11.9;50.6
78884;SHT31;68262;51.968;5.672;2023-04-25T08:31:17;12.0;50.0
78884;SHT31;68262;51.968;5.672;2023-04-25T08:33:48;12.1;50.2
78884;SHT31;68262;51.968;5.672;2023-04-25T08:36:19;12.2;51.1
78884;SHT31;68262;51.968;5.672;2023-04-25T08:38:48;12.3;50.3
78884;SHT31;68262;51.968;5.672;2023-04-25T08:41:19;12.5;49.2
78884;SHT31;68262;51.968;5.672;2023-04-25T08:43:51;12.6;48.0
78884;SHT31;68262;51.968;5.672;2023-04-25T08:46:21;12.7;48.3
78884;SHT31;68262;51.968;5.672;2023-04-25T08:48:53;12.8;47.4
78884;SHT31;68262;51.968;5.672;2023-04-25T08:51:31;13.0;45.2
78884;SHT31;68262;51.968;5.672;2023-04-25T08:54:10;13.1;45.5
78884;SHT31;68262;51.968;5.672;2023-04-25T08:56:43;13.3;46.0
78884;SHT31;68262;51.968;5.672;2023-04-25T08:59:14;13.5;45.6
78884;SHT31;68262;51.968;5.672;2023-04-25T09:01:45;13.7;42.9
78884;SHT31;68262;51.968;5.672;2023-04-25T09:04:15;13.9;42.9
78884;SHT31;68262;51.968;5.672;2023-04-25T09:06:44;14.0;40.8
78884;SHT31;68262;51.968;5.672;2023-04-25T09:09:15;14.0;41.4
78884;SHT31;68262;51.968;5.672;2023-04-25T09:11:45;13.9;44.1
78884;SHT31;68262;51.968;5.672;2023-04-25T09:14:16;13.8;45.8
78884;SHT31;68262;51.968;5.672;2023-04-25T09:17:06;13.6;44.9
78884;SHT31;68262;51.968;5.672;2023-04-25T09:19:37;13.4;46.1
78884;SHT31;68262;51.968;5.672;2023-04-25T09:22:08;13.2;45.4
78884;SHT31;68262;51.968;5.672;2023-04-25T09:24:39;13.1;45.8
78884;SHT31;68262;51.968;5.672;2023-04-25T09:27:12;13.0;46.0
78884;SHT31;68262;51.968;5.672;2023-04-25T09:29:42;13.0;46.5
78884;SHT31;68262;51.968;5.672;2023-04-25T09:32:16;12.9;47.0
78884;SHT31;68262;51.968;5.672;2023-04-25T09:34:47;13.0;48.7
78884;SHT31;68262;51.968;5.672;2023-04-25T09:37:21;13.1;46.7
78884;SHT31;68262;51.968;5.672;2023-04-25T09:39:55;13.2;46.2
78884;SHT31;68262;51.968;5.672;2023-04-25T09:42:28;13.3;44.1
78884;SHT31;68262;51.968;5.672;2023-04-25T09:45:00;13.5;44.0
78884;SHT31;68262;51.968;5.672;2023-04-25T09:47:31;13.7;41.0
78884;SHT31;68262;51.968;5.672;2023-04-25T09:50:01;13.9;40.5
78884;SHT31;68262;51.968;5.672;2023-04-25T09:52:31;14.3;40.1
78884;SHT31;68262;51.968;5.672;2023-04-25T09:55:01;14.7;40.8
78884;SHT31;68262;51.968;5.672;2023-04-25T09:57:31;15.1;39.5
78884;SHT31;68262;51.968;5.672;2023-04-25T10:00:01;15.5;39.0
78884;SHT31;68262;51.968;5.672;2023-04-25T10:02:38;15.8;39.5
78884;SHT31;68262;51.968;5.672;2023-04-25T10:05:10;15.9;38.3
78884;SHT31;68262;51.968;5.672;2023-04-25T10:07:40;16.0;36.2
78884;SHT31;68262;51.968;5.672;2023-04-25T10:10:12;16.1;36.4
78884;SHT31;68262;51.968;5.672;2023-04-25T10:12:43;16.1;35.0
78884;SHT31;68262;51.968;5.672;2023-04-25T10:15:15;16.0;35.3
78884;SHT31;68262;51.968;5.672;2023-04-25T10:17:44;15.8;35.6
78884;SHT31;68262;51.968;5.672;2023-04-25T10:20:16;15.6;36.6
78884;SHT31;68262;51.968;5.672;2023-04-25T10:22:47;15.4;35.5
78884;SHT31;68262;51.968;5.672;2023-04-25T10:25:22;15.2;35.4
78884;SHT31;68262;51.968;5.672;2023-04-25T10:27:53;15.1;37.7
78884;SHT31;68262;51.968;5.672;2023-04-25T10:30:23;15.0;38.5
78884;SHT31;68262;51.968;5.672;2023-04-25T10:32:55;14.9;38.5
78884;SHT31;68262;51.968;5.672;2023-04-25T10:35:27;14.7;38.2
78884;SHT31;68262;51.968;5.672;2023-04-25T10:38:08;14.6;39.4
78884;SHT31;68262;51.968;5.672;2023-04-25T10:40:40;14.6;40.1
78884;SHT31;68262;51.968;5.672;2023-04-25T10:43:37;14.5;40.1
78884;SHT31;68262;51.968;5.672;2023-04-25T10:46:18;14.5;41.2
78884;SHT31;68262;51.968;5.672;2023-04-25T10:48:50;14.6;40.8
78884;SHT31;68262;51.968;5.672;2023-04-25T10:51:23;14.6;39.9
78884;SHT31;68262;51.968;5.672;2023-04-25T10:54:00;14.7;39.4
78884;SHT31;68262;51.968;5.672;2023-04-25T10:56:31;14.9;38.4
78884;SHT31;68262;51.968;5.672;2023-04-25T10:59:09;14.9;38.2
78884;SHT31;68262;51.968;5.672;2023-04-25T11:01:41;15.0;36.8
78884;SHT31;68262;51.968;5.672;2023-04-25T11:04:33;15.0;36.5
78884;SHT31;68262;51.968;5.672;2023-04-25T11:07:10;15.0;35.6
78884;SHT31;68262;51.968;5.672;2023-04-25T11:09:42;15.1;37.3
78884;SHT31;68262;51.968;5.672;2023-04-25T11:12:14;15.1;35.5
78884;SHT31;68262;51.968;5.672;2023-04-25T11:14:44;15.2;36.8
78884;SHT31;68262;51.968;5.672;2023-04-25T11:17:14;15.2;36.8
78884;SHT31;68262;51.968;5.672;2023-04-25T11:19:47;15.3;36.6
78884;SHT31;68262;51.968;5.672;2023-04-25T11:22:19;15.4;36.5
78884;SHT31;68262;51.968;5.672;2023-04-25T11:24:50;15.4;36.7
78884;SHT31;68262;51.968;5.672;2023-04-25T11:27:20;15.4;35.6
78884;SHT31;68262;51.968;5.672;2023-04-25T11:29:53;15.5;35.6
78884;SHT31;68262;51.968;5.672;2023-04-25T11:32:23;15.6;36.5
78884;SHT31;68262;51.968;5.672;2023-04-25T11:34:54;15.7;34.6
78884;SHT31;68262;51.968;5.672;2023-04-25T11:37:26;15.9;34.1
78884;SHT31;68262;51.968;5.672;2023-04-25T11:39:56;16.0;33.5
78884;SHT31;68262;51.968;5.672;2023-04-25T11:42:26;16.1;34.4
78884;SHT31;68262;51.968;5.672;2023-04-25T11:44:55;16.2;33.4
78884;SHT31;68262;51.968;5.672;2023-04-25T11:47:29;16.3;35.4
78884;SHT31;68262;51.968;5.672;2023-04-25T11:50:00;16.4;34.5
78884;SHT31;68262;51.968;5.672;2023-04-25T11:52:48;16.5;33.8
78884;SHT31;68262;51.968;5.672;2023-04-25T11:55:19;16.6;34.5
78884;SHT31;68262;51.968;5.672;2023-04-25T11:57:49;16.6;36.4
78884;SHT31;68262;51.968;5.672;2023-04-25T12:00:21;16.6;36.9
78884;SHT31;68262;51.968;5.672;2023-04-25T12:02:54;16.4;38.4
78884;SHT31;68262;51.968;5.672;2023-04-25T12:05:28;16.3;37.6
78884;SHT31;68262;51.968;5.672;2023-04-25T12:07:58;16.0;37.9
78884;SHT31;68262;51.968;5.672;2023-04-25T12:10:37;15.8;38.0
78884;SHT31;68262;51.968;5.672;2023-04-25T12:13:20;15.6;39.0
78884;SHT31;68262;51.968;5.672;2023-04-25T12:15:51;15.5;39.2
78884;SHT31;68262;51.968;5.672;2023-04-25T12:18:23;15.4;40.2
78884;SHT31;68262;51.968;5.672;2023-04-25T12:20:55;15.3;39.8
78884;SHT31;68262;51.968;5.672;2023-04-25T12:23:28;15.2;39.3
78884;SHT31;68262;51.968;5.672;2023-04-25T12:25:58;15.1;39.9
78884;SHT31;68262;51.968;5.672;2023-04-25T12:28:32;15.1;38.8
78884;SHT31;68262;51.968;5.672;2023-04-25T12:31:03;15.1;38.8
78884;SHT31;68262;51.968;5.672;2023-04-25T12:33:35;15.1;38.3
78884;SHT31;68262;51.968;5.672;2023-04-25T12:36:06;15.1;39.0
78884;SHT31;68262;51.968;5.672;2023-04-25T12:38:40;15.2;37.8
78884;SHT31;68262;51.968;5.672;2023-04-25T12:41:10;15.3;38.2
78884;SHT31;68262;51.968;5.672;2023-04-25T12:43:42;15.4;36.0
78884;SHT31;68262;51.968;5.672;2023-04-25T12:46:11;15.5;36.0
78884;SHT31;68262;51.968;5.672;2023-04-25T12:48:42;15.5;36.0
78884;SHT31;68262;51.968;5.672;2023-04-25T12:51:11;15.5;36.5
78884;SHT31;68262;51.968;5.672;2023-04-25T12:53:40;15.6;38.0
78884;SHT31;68262;51.968;5.672;2023-04-25T12:56:10;15.7;38.2
78884;SHT31;68262;51.968;5.672;2023-04-25T12:58:40;15.8;37.4
78884;SHT31;68262;51.968;5.672;2023-04-25T13:01:11;15.9;37.0
78884;SHT31;68262;51.968;5.672;2023-04-25T13:03:41;16.0;38.1
78884;SHT31;68262;51.968;5.672;2023-04-25T13:06:11;16.0;38.0
78884;SHT31;68262;51.968;5.672;2023-04-25T13:08:42;16.0;37.1
78884;SHT31;68262;51.968;5.672;2023-04-25T13:11:12;15.9;37.6
78884;SHT31;68262;51.968;5.672;2023-04-25T13:13:42;15.9;36.2
78884;SHT31;68262;51.968;5.672;2023-04-25T13:16:12;16.0;37.4
78884;SHT31;68262;51.968;5.672;2023-04-25T13:18:42;16.1;37.9
78884;SHT31;68262;51.968;5.672;2023-04-25T13:21:12;16.5;36.8
78884;SHT31;68262;51.968;5.672;2023-04-25T13:23:42;16.8;34.0
78884;SHT31;68262;51.968;5.672;2023-04-25T13:26:13;17.1;35.5
78884;SHT31;68262;51.968;5.672;2023-04-25T13:28:43;17.5;33.5
78884;SHT31;68262;51.968;5.672;2023-04-25T13:31:12;17.9;31.9
78884;SHT31;68262;51.968;5.672;2023-04-25T13:33:43;18.1;31.9
78884;SHT31;68262;51.968;5.672;2023-04-25T13:36:13;18.3;34.2
78884;SHT31;68262;51.968;5.672;2023-04-25T13:38:44;18.5;32.7
78884;SHT31;68262;51.968;5.672;2023-04-25T13:41:15;18.9;30.3
78884;SHT31;68262;51.968;5.672;2023-04-25T13:43:46;19.0;30.5
78884;SHT31;68262;51.968;5.672;2023-04-25T13:46:16;19.1;30.5
78884;SHT31;68262;51.968;5.672;2023-04-25T13:48:46;19.1;28.6
78884;SHT31;68262;51.968;5.672;2023-04-25T13:51:16;19.1;29.3
78884;SHT31;68262;51.968;5.672;2023-04-25T13:53:46;19.1;29.8
78884;SHT31;68262;51.968;5.672;2023-04-25T13:56:17;19.1;29.3
78884;SHT31;68262;51.968;5.672;2023-04-25T13:58:47;19.0;29.3
78884;SHT31;68262;51.968;5.672;2023-04-25T14:01:17;18.9;29.6
78884;SHT31;68262;51.968;5.672;2023-04-25T14:03:48;18.8;30.2
78884;SHT31;68262;51.968;5.672;2023-04-25T14:06:17;18.4;31.4
78884;SHT31;68262;51.968;5.672;2023-04-25T14:08:50;17.9;32.2
78884;SHT31;68262;51.968;5.672;2023-04-25T14:11:20;17.5;33.3
78884;SHT31;68262;51.968;5.672;2023-04-25T14:13:49;17.2;34.0
78884;SHT31;68262;51.968;5.672;2023-04-25T14:16:19;16.9;33.9
78884;SHT31;68262;51.968;5.672;2023-04-25T14:18:50;16.7;34.4
78884;SHT31;68262;51.968;5.672;2023-04-25T14:21:19;16.5;35.0
78884;SHT31;68262;51.968;5.672;2023-04-25T14:23:49;16.4;35.5
78884;SHT31;68262;51.968;5.672;2023-04-25T14:26:19;16.5;35.7
78884;SHT31;68262;51.968;5.672;2023-04-25T14:28:48;16.9;35.5
78884;SHT31;68262;51.968;5.672;2023-04-25T14:31:17;17.4;33.2
78884;SHT31;68262;51.968;5.672;2023-04-25T14:33:48;17.5;32.6
78884;SHT31;68262;51.968;5.672;2023-04-25T14:36:17;17.4;32.8
78884;SHT31;68262;51.968;5.672;2023-04-25T14:38:47;17.3;32.4
78884;SHT31;68262;51.968;5.672;2023-04-25T14:41:17;17.1;32.4
78884;SHT31;68262;51.968;5.672;2023-04-25T14:43:46;16.9;32.9
78884;SHT31;68262;51.968;5.672;2023-04-25T14:46:16;16.8;33.0
78884;SHT31;68262;51.968;5.672;2023-04-25T14:48:45;16.6;34.5
78884;SHT31;68262;51.968;5.672;2023-04-25T14:51:15;16.5;34.2
78884;SHT31;68262;51.968;5.672;2023-04-25T14:53:45;16.5;35.4
78884;SHT31;68262;51.968;5.672;2023-04-25T14:56:14;16.5;34.8
78884;SHT31;68262;51.968;5.672;2023-04-25T14:58:44;16.8;33.0
78884;SHT31;68262;51.968;5.672;2023-04-25T15:01:14;16.9;32.5
78884;SHT31;68262;51.968;5.672;2023-04-25T15:03:44;17.0;32.4
78884;SHT31;68262;51.968;5.672;2023-04-25T15:06:13;17.0;32.1
78884;SHT31;68262;51.968;5.672;2023-04-25T15:08:43;17.0;31.5
78884;SHT31;68262;51.968;5.672;2023-04-25T15:11:13;17.0;31.4
78884;SHT31;68262;51.968;5.672;2023-04-25T15:13:43;17.0;33.5
78884;SHT31;68262;51.968;5.672;2023-04-25T15:16:12;17.0;33.7
78884;SHT31;68262;51.968;5.672;2023-04-25T15:18:42;17.1;33.0
78884;SHT31;68262;51.968;5.672;2023-04-25T15:21:11;17.1;31.7
78884;SHT31;68262;51.968;5.672;2023-04-25T15:23:41;17.1;33.2
78884;SHT31;68262;51.968;5.672;2023-04-25T15:26:10;17.0;33.5
78884;SHT31;68262;51.968;5.672;2023-04-25T15:28:39;17.0;34.2
78884;SHT31;68262;51.968;5.672;2023-04-25T15:31:10;17.0;34.0
78884;SHT31;68262;51.968;5.672;2023-04-25T15:33:39;16.9;33.7
78884;SHT31;68262;51.968;5.672;2023-04-25T15:36:09;16.8;34.2
78884;SHT31;68262;51.968;5.672;2023-04-25T15:38:39;16.6;34.9
78884;SHT31;68262;51.968;5.672;2023-04-25T15:41:09;16.4;35.1
78884;SHT31;68262;51.968;5.672;2023-04-25T15:43:38;16.2;34.9
78884;SHT31;68262;51.968;5.672;2023-04-25T15:46:10;16.1;35.3
78884;SHT31;68262;51.968;5.672;2023-04-25T15:48:39;16.0;34.8
78884;SHT31;68262;51.968;5.672;2023-04-25T15:51:09;15.9;34.0
78884;SHT31;68262;51.968;5.672;2023-04-25T15:53:38;15.8;33.7
78884;SHT31;68262;51.968;5.672;2023-04-25T15:56:08;15.7;34.0
78884;SHT31;68262;51.968;5.672;2023-04-25T15:58:37;15.6;34.1
78884;SHT31;68262;51.968;5.672;2023-04-25T16:01:07;15.4;35.2
78884;SHT31;68262;51.968;5.672;2023-04-25T16:03:37;15.2;35.3
78884;SHT31;68262;51.968;5.672;2023-04-25T16:06:07;15.1;35.8
78884;SHT31;68262;51.968;5.672;2023-04-25T16:08:37;15.0;35.9
78884;SHT31;68262;51.968;5.672;2023-04-25T16:11:08;14.9;36.2
78884;SHT31;68262;51.968;5.672;2023-04-25T16:13:40;14.8;36.7
78884;SHT31;68262;51.968;5.672;2023-04-25T16:16:10;14.8;36.4
78884;SHT31;68262;51.968;5.672;2023-04-25T16:18:39;14.7;36.9
78884;SHT31;68262;51.968;5.672;2023-04-25T16:21:09;14.6;37.0
78884;SHT31;68262;51.968;5.672;2023-04-25T16:23:43;14.6;35.9
78884;SHT31;68262;51.968;5.672;2023-04-25T16:26:12;14.5;35.8
78884;SHT31;68262;51.968;5.672;2023-04-25T16:28:42;14.4;36.1